Time;durP1;ratioP1;P1;durP2;ratioP2;P2;SDS_P1;SDS_P2;PMS_P1;PMS_P2;Temp;Humidity;BMP_temperature;BMP_pressure;BME280_temperature;BME280_humidity;BME280_pressure;Samples;Min_cycle;Max_cycle;Signal;HPM_P1;HPM_P2
2021/07/13 05:03:12;;;;;;;14.30;9.68;;;;;;;16.86;81.43;99605.94;5006029;28;105820;-66
2021/07/13 05:05:37;;;;;;;15.23;9.98;;;;;;;16.97;81.97;99609.78;5004085;28;106015;-66
2021/07/13 05:08:03;;;;;;;13.48;8.85;;;;;;;17.10;82.31;99608.78;5003822;28;106271;-70
2021/07/13 05:10:28;;;;;;;15.45;9.27;;;;;;;17.27;82.26;99618.91;5005064;28;106751;-70
2021/07/13 05:12:53;;;;;;;14.98;8.98;;;;;;;17.42;82.31;99622.81;5005013;28;106155;-68
2021/07/13 05:15:19;;;;;;;14.85;9.70;;;;;;;17.58;81.99;99612.47;5005821;28;106591;-68
2021/07/13 05:17:44;;;;;;;11.98;8.98;;;;;;;17.72;82.11;99616.56;5005406;28;106190;-68
2021/07/13 05:20:12;;;;;;;15.45;9.88;;;;;;;17.87;81.85;99626.09;5005086;28;106137;-68
2021/07/13 05:22:38;;;;;;;13.30;9.25;;;;;;;18.00;81.52;99627.78;5005234;28;106161;-69
2021/07/13 05:25:06;;;;;;;14.20;9.18;;;;;;;18.13;81.74;99632.94;5006229;28;106038;-69
2021/07/13 05:27:35;;;;;;;12.98;9.02;;;;;;;18.24;81.14;99632.13;5005579;28;106127;-69
2021/07/13 05:30:01;;;;;;;13.98;9.38;;;;;;;18.32;80.92;99630.16;5004850;28;106013;-69
2021/07/13 05:32:26;;;;;;;14.23;9.35;;;;;;;18.41;80.98;99613.38;5004899;28;106072;-71
2021/07/13 05:34:51;;;;;;;12.57;9.45;;;;;;;18.56;81.08;99610.19;5005932;28;106044;-69
2021/07/13 05:37:17;;;;;;;10.80;9.02;;;;;;;18.72;80.87;99608.63;5004796;28;106190;-68
2021/07/13 05:39:42;;;;;;;15.35;10.77;;;;;;;18.78;80.28;99607.69;5003801;28;107314;-68
2021/07/13 05:42:10;;;;;;;13.88;10.43;;;;;;;18.82;79.95;99602.63;5003887;28;105910;-67
2021/07/13 05:44:35;;;;;;;15.23;9.88;;;;;;;18.84;79.62;99605.09;5004673;28;105928;-68
2021/07/13 05:47:00;;;;;;;10.75;9.15;;;;;;;18.88;79.48;99601.69;5004903;28;106196;-68
2021/07/13 05:49:26;;;;;;;14.63;10.13;;;;;;;19.01;79.73;99599.78;5004542;28;106311;-70
2021/07/13 05:51:51;;;;;;;13.02;9.95;;;;;;;19.15;79.63;99601.13;5003691;28;105896;-67
2021/07/13 05:54:16;;;;;;;18.35;10.60;;;;;;;19.31;79.71;99606.81;5004532;28;105807;-67
2021/07/13 05:56:42;;;;;;;13.30;9.52;;;;;;;19.44;79.25;99603.81;5004071;28;106183;-67
2021/07/13 05:59:07;;;;;;;13.68;9.95;;;;;;;19.60;79.09;99607.56;5003831;28;105949;-68
2021/07/13 06:01:32;;;;;;;16.05;9.88;;;;;;;19.70;78.65;99604.25;5003181;28;106126;-68
2021/07/13 06:03:57;;;;;;;18.13;9.63;;;;;;;19.80;78.38;99607.13;5004909;28;105852;-69
2021/07/13 06:06:23;;;;;;;14.60;11.23;;;;;;;19.93;78.24;99609.53;4957880;28;107119;-68
2021/07/13 06:08:48;;;;;;;12.75;10.40;;;;;;;20.03;78.09;99605.34;4943577;28;107097;-67
2021/07/13 06:11:14;;;;;;;15.77;10.75;;;;;;;20.17;77.97;99600.41;4944404;28;106163;-68
2021/07/13 06:13:39;;;;;;;15.60;12.35;;;;;;;20.33;77.83;99599.56;4936849;28;105963;-67
2021/07/13 06:16:04;;;;;;;16.63;11.52;;;;;;;20.45;77.25;99591.34;4931849;28;106718;-68
2021/07/13 06:18:30;;;;;;;15.63;12.00;;;;;;;20.55;76.74;99577.94;4931294;28;107066;-68
2021/07/13 06:20:55;;;;;;;15.13;10.85;;;;;;;20.69;76.82;99581.09;4943606;28;106051;-67
2021/07/13 06:23:21;;;;;;;13.35;10.32;;;;;;;20.86;76.67;99581.03;4966422;28;105971;-68
2021/07/13 06:25:46;;;;;;;17.38;10.30;;;;;;;20.98;76.10;99571.97;4950887;28;106189;-68
2021/07/13 06:28:11;;;;;;;15.93;9.77;;;;;;;21.12;76.14;99578.63;4950566;28;115439;-68
2021/07/13 06:30:37;;;;;;;13.15;9.70;;;;;;;21.30;75.74;99570.13;4951045;28;106227;-67
2021/07/13 06:33:03;;;;;;;11.95;9.25;;;;;;;21.47;75.45;99575.44;4952006;28;106312;-72
2021/07/13 06:35:29;;;;;;;15.75;10.10;;;;;;;21.62;74.86;99572.06;4951510;28;106186;-67
2021/07/13 06:37:54;;;;;;;13.23;9.98;;;;;;;21.79;74.56;99569.22;4949956;28;106733;-69
2021/07/13 06:40:20;;;;;;;13.75;8.82;;;;;;;21.85;73.81;99559.22;4950276;28;105891;-68
2021/07/13 06:42:45;;;;;;;13.82;9.23;;;;;;;22.00;73.61;99571.25;4951364;28;105991;-70
2021/07/13 06:45:11;;;;;;;10.93;8.40;;;;;;;22.11;73.41;99560.19;4951180;28;106235;-68
2021/07/13 06:47:37;;;;;;;10.90;7.60;;;;;;;22.26;72.97;99569.50;4951146;28;106640;-68
2021/07/13 06:50:04;;;;;;;9.20;7.78;;;;;;;22.41;72.62;99556.03;4951132;28;106096;-68
2021/07/13 06:52:30;;;;;;;15.05;7.85;;;;;;;22.41;71.22;99550.63;4951808;28;106075;-68
2021/07/13 06:54:56;;;;;;;11.48;8.30;;;;;;;22.42;71.38;99554.16;4949485;28;106445;-68
2021/07/13 06:57:23;;;;;;;16.27;8.25;;;;;;;22.51;71.43;99549.84;4948171;28;106375;-68
2021/07/13 06:59:48;;;;;;;12.40;8.27;;;;;;;22.65;71.43;99545.56;4948461;28;106079;-68
2021/07/13 07:02:13;;;;;;;15.18;8.15;;;;;;;22.81;70.96;99551.03;4948587;28;106155;-68
2021/07/13 07:04:40;;;;;;;13.55;8.07;;;;;;;22.92;70.74;99549.16;4948843;28;106428;-69
2021/07/13 07:07:05;;;;;;;10.05;7.30;;;;;;;23.10;70.17;99554.09;4947844;28;105985;-66
2021/07/13 07:09:30;;;;;;;15.57;7.95;;;;;;;23.26;69.86;99560.38;4949312;28;106105;-68
2021/07/13 07:11:55;;;;;;;13.50;7.88;;;;;;;23.32;68.59;99562.03;4951463;28;105698;-66
2021/07/13 07:14:21;;;;;;;15.52;8.38;;;;;;;23.28;68.73;99568.31;4950654;28;105827;-65
2021/07/13 07:16:46;;;;;;;11.68;8.07;;;;;;;23.30;68.30;99566.91;4950372;28;105798;-66
2021/07/13 07:19:11;;;;;;;13.18;7.78;;;;;;;23.49;68.71;99569.13;4950546;28;105813;-67
2021/07/13 07:21:37;;;;;;;13.25;8.32;;;;;;;23.71;67.70;99560.69;4933744;28;105922;-65
2021/07/13 07:24:03;;;;;;;10.68;7.90;;;;;;;23.86;67.84;99556.34;4938428;28;106170;-66
2021/07/13 07:26:29;;;;;;;11.75;7.63;;;;;;;23.99;67.47;99553.09;4948371;28;106956;-67
2021/07/13 07:28:54;;;;;;;10.55;7.65;;;;;;;24.21;67.22;99547.31;4949956;28;106476;-66
2021/07/13 07:31:21;;;;;;;11.13;7.60;;;;;;;24.45;66.53;99542.06;4950697;28;106617;-66
2021/07/13 07:33:46;;;;;;;11.70;7.22;;;;;;;24.70;66.29;99534.06;4928851;28;106383;-64
2021/07/13 07:36:12;;;;;;;10.25;8.32;;;;;;;24.71;64.62;99541.94;4932655;28;106715;-66
2021/07/13 07:38:37;;;;;;;9.82;7.47;;;;;;;24.73;64.20;99541.66;4948309;28;106562;-67
2021/07/13 07:41:03;;;;;;;10.63;7.85;;;;;;;24.70;63.98;99544.97;4949017;28;105975;-66
2021/07/13 07:43:28;;;;;;;8.80;7.88;;;;;;;24.74;64.11;99538.69;4948104;28;106453;-67
2021/07/13 07:45:54;;;;;;;10.15;7.43;;;;;;;24.92;64.05;99537.22;4947730;28;106496;-66
2021/07/13 07:48:19;;;;;;;11.98;7.28;;;;;;;25.13;63.61;99534.38;4928805;28;106492;-65
2021/07/13 07:50:44;;;;;;;9.27;6.75;;;;;;;25.34;62.99;99533.16;4929789;28;106021;-65
2021/07/13 07:53:10;;;;;;;16.02;11.25;;;;;;;25.59;62.48;99530.47;4929191;28;106348;-65
2021/07/13 07:55:35;;;;;;;10.07;7.70;;;;;;;25.78;62.02;99527.84;4928009;28;106464;-66
2021/07/13 07:58:00;;;;;;;9.43;7.18;;;;;;;26.04;61.41;99524.88;4928157;28;106448;-65
2021/07/13 08:00:26;;;;;;;10.43;7.10;;;;;;;26.22;60.46;99526.88;4927996;28;106104;-67
2021/07/13 08:02:52;;;;;;;8.70;6.10;;;;;;;26.38;60.11;99523.94;4929000;28;106247;-66
2021/07/13 08:05:18;;;;;;;9.27;7.15;;;;;;;26.55;59.20;99518.81;4928880;28;106063;-66
2021/07/13 08:07:45;;;;;;;8.63;6.53;;;;;;;26.73;59.28;99521.91;4929304;28;106463;-67
2021/07/13 08:10:11;;;;;;;11.27;6.78;;;;;;;26.83;58.33;99529.94;4929288;28;106049;-67
2021/07/13 08:12:42;;;;;;;12.45;7.15;;;;;;;26.99;58.33;99523.13;4909301;28;106318;-66
2021/07/13 08:15:08;;;;;;;9.80;7.13;;;;;;;27.16;57.45;99524.53;4918774;28;106828;-66
2021/07/13 08:17:33;;;;;;;9.85;6.10;;;;;;;27.26;56.62;99527.13;4928684;28;106376;-66
2021/07/13 08:19:59;;;;;;;13.70;7.43;;;;;;;27.36;56.10;99524.22;4929813;28;106269;-67
2021/07/13 08:22:25;;;;;;;14.27;8.05;;;;;;;27.42;55.62;99524.16;4927583;28;106261;-66
2021/07/13 08:24:50;;;;;;;8.15;7.10;;;;;;;27.57;55.30;99531.28;4926500;28;107405;-66
2021/07/13 08:27:15;;;;;;;11.45;7.45;;;;;;;27.65;54.84;99525.97;4929623;28;106525;-66
2021/07/13 08:29:42;;;;;;;11.35;6.93;;;;;;;27.74;54.44;99523.34;4930655;28;106033;-66
2021/07/13 08:32:08;;;;;;;8.85;6.90;;;;;;;27.86;53.69;99531.06;4928137;28;106269;-66
2021/07/13 08:34:34;;;;;;;10.45;7.03;;;;;;;27.72;53.19;99528.31;4928484;28;105979;-68
2021/07/13 08:37:00;;;;;;;11.98;7.22;;;;;;;27.75;53.07;99532.34;4928149;28;106309;-69
2021/07/13 08:39:26;;;;;;;8.50;6.55;;;;;;;27.92;53.15;99527.09;4930057;28;106106;-66
2021/07/13 08:41:52;;;;;;;8.07;6.93;;;;;;;28.06;52.69;99520.88;4929525;28;106178;-66
2021/07/13 08:44:17;;;;;;;11.52;6.93;;;;;;;28.17;52.44;99523.09;4929385;28;107066;-68
2021/07/13 08:46:43;;;;;;;10.48;7.10;;;;;;;28.27;51.43;99526.72;4929270;28;106443;-68
2021/07/13 08:49:11;;;;;;;10.80;8.38;;;;;;;28.23;51.75;99518.34;4929963;28;106350;-67
2021/07/13 08:51:38;;;;;;;8.38;7.25;;;;;;;28.31;50.85;99520.34;4929931;28;106275;-67
2021/07/13 08:54:03;;;;;;;10.18;7.43;;;;;;;28.25;50.62;99521.56;4929322;28;105917;-70
2021/07/13 08:56:31;;;;;;;12.10;7.05;;;;;;;28.08;50.79;99524.13;4929518;28;106218;-69
2021/07/13 08:58:57;;;;;;;10.23;6.35;;;;;;;27.98;51.18;99525.91;4930285;28;105797;-70
2021/07/13 09:01:22;;;;;;;9.75;6.47;;;;;;;27.95;49.95;99521.00;4929510;28;105813;-70
2021/07/13 09:03:54;;;;;;;17.75;7.47;;;;;;;27.99;51.25;99515.75;4929463;28;106059;-67
2021/07/13 09:06:19;;;;;;;10.80;7.13;;;;;;;28.31;50.85;99520.34;4928741;28;106213;-67
2021/07/13 09:08:45;;;;;;;7.85;6.22;;;;;;;28.40;49.62;99519.66;4944357;28;105997;-66
2021/07/13 09:11:17;;;;;;;7.60;6.32;;;;;;;28.51;49.38;99516.38;4929175;28;106256;-65
2021/07/13 09:13:54;;;;;;;10.20;7.47;;;;;;;28.73;48.76;99512.09;4929180;28;106791;-66
2021/07/13 09:16:33;;;;;;;7.40;6.30;;;;;;;28.92;48.77;99514.69;4928397;28;106223;-66
2021/07/13 09:18:59;;;;;;;9.32;6.60;;;;;;;29.23;48.43;99513.97;4929387;28;106148;-66
2021/07/13 09:21:27;;;;;;;8.25;6.78;;;;;;;29.36;47.96;99507.63;4944150;28;106461;-71
2021/07/13 09:24:14;;;;;;;8.38;6.40;;;;;;;29.49;47.61;99505.91;4947807;28;106081;-68
2021/07/13 09:26:40;;;;;;;9.32;6.18;;;;;;;29.62;47.39;99504.25;4948436;28;105884;-72
2021/07/13 09:29:06;;;;;;;8.05;6.50;;;;;;;29.84;47.37;99508.03;4948860;28;106110;-70
2021/07/13 09:31:31;;;;;;;7.88;6.43;;;;;;;30.00;46.80;99514.75;4948338;28;106042;-68
2021/07/13 09:33:57;;;;;;;7.78;6.80;;;;;;;30.16;46.24;99511.59;4948106;28;105827;-68
2021/07/13 09:36:22;;;;;;;7.50;6.65;;;;;;;30.38;46.03;99500.50;4947525;28;106781;-69
2021/07/13 09:38:50;;;;;;;8.80;6.93;;;;;;;30.65;45.36;99495.88;4948402;28;106104;-70
2021/07/13 09:41:17;;;;;;;10.77;6.55;;;;;;;30.81;44.67;99500.91;4948211;28;106236;-71
2021/07/13 09:43:52;;;;;;;9.32;6.35;;;;;;;30.80;44.42;99496.56;4938974;28;107558;-69
2021/07/13 09:46:24;;;;;;;10.38;6.50;;;;;;;30.94;44.15;99496.38;4927546;28;106125;-67
2021/07/13 09:49:21;;;;;;;12.38;6.80;;;;;;;30.99;44.41;99498.94;4927464;28;106174;-67
2021/07/13 09:51:46;;;;;;;10.05;6.13;;;;;;;30.96;43.49;99502.34;4929838;28;106117;-69
2021/07/13 09:54:36;;;;;;;11.05;7.13;;;;;;;31.01;43.70;99492.00;4931585;28;106012;-67
2021/07/13 09:57:06;;;;;;;12.93;6.85;;;;;;;31.14;43.64;99483.91;4931510;28;106748;-72
2021/07/13 09:59:32;;;;;;;7.43;6.63;;;;;;;31.35;43.05;99479.34;4932632;28;105886;-70
2021/07/13 10:02:03;;;;;;;10.18;6.32;;;;;;;31.64;42.60;99486.09;4931246;28;106104;-74
2021/07/13 10:04:30;;;;;;;9.52;6.25;;;;;;;31.94;42.40;99483.41;4930933;28;105882;-77
2021/07/13 10:06:58;;;;;;;9.80;6.68;;;;;;;32.10;41.58;99482.84;4940828;28;106588;-83
2021/07/13 10:09:29;;;;;;;7.80;7.00;;;;;;;32.19;41.51;99483.63;4951337;28;106027;-77
2021/07/13 10:11:55;;;;;;;7.97;6.30;;;;;;;32.15;41.24;99472.47;4951042;28;105932;-70
2021/07/13 10:14:20;;;;;;;7.55;6.07;;;;;;;32.29;40.74;99471.41;4950861;28;105962;-73
2021/07/13 10:16:46;;;;;;;6.95;6.25;;;;;;;32.47;40.43;99472.91;4950456;28;105979;-74
2021/07/13 10:19:11;;;;;;;8.95;6.20;;;;;;;32.60;40.33;99479.28;4951508;28;105899;-72
2021/07/13 10:21:38;;;;;;;6.65;5.72;;;;;;;32.62;39.83;99484.50;4950571;28;106212;-74
2021/07/13 10:24:04;;;;;;;6.88;5.40;;;;;;;32.76;39.41;99473.22;4951035;28;106078;-74
2021/07/13 10:26:50;;;;;;;9.00;5.85;;;;;;;33.04;39.15;99468.75;4950737;28;106138;-72
2021/07/13 10:29:31;;;;;;;8.18;5.38;;;;;;;33.30;38.43;99470.47;4951281;28;106056;-69
2021/07/13 10:31:57;;;;;;;6.35;5.53;;;;;;;33.42;38.08;99471.66;4948820;28;106281;-67
2021/07/13 10:34:59;;;;;;;7.15;5.80;;;;;;;33.60;37.40;99473.06;4950515;28;106394;-68
2021/07/13 10:37:32;;;;;;;7.10;5.53;;;;;;;33.67;37.20;99466.97;4949380;28;106015;-73
2021/07/13 10:40:02;;;;;;;6.88;5.90;;;;;;;33.77;36.48;99463.78;4951554;28;105951;-73
2021/07/13 10:42:43;;;;;;;8.00;5.60;;;;;;;33.83;36.83;99467.94;4950658;28;106036;-72
2021/07/13 10:45:22;;;;;;;8.25;5.85;;;;;;;33.83;36.17;99469.88;4950073;28;105946;-72
2021/07/13 10:48:05;;;;;;;8.38;5.85;;;;;;;33.70;36.37;99460.75;4950605;28;106123;-72
2021/07/13 10:50:30;;;;;;;6.32;5.72;;;;;;;33.78;36.27;99459.06;4951743;28;106028;-68
2021/07/13 10:52:57;;;;;;;9.05;5.88;;;;;;;33.76;36.13;99459.38;4950475;28;106204;-69
2021/07/13 10:55:31;;;;;;;6.82;5.82;;;;;;;33.98;35.99;99458.16;4950372;28;106028;-69
2021/07/13 10:58:09;;;;;;;8.30;5.78;;;;;;;34.21;36.17;99452.94;4950098;28;106360;-69
2021/07/13 11:00:50;;;;;;;7.43;5.70;;;;;;;34.44;35.60;99454.44;4928940;28;106137;-70
2021/07/13 11:03:27;;;;;;;7.63;5.85;;;;;;;34.56;35.45;99452.44;4921299;28;106181;-75
2021/07/13 19:46:24;;;;;;;13.45;12.05;;;;;;;25.43;57.76;99240.81;4987679;27;106202;-81
2021/07/13 19:48:50;;;;;;;15.55;12.65;;;;;;;25.44;58.63;99234.28;4985273;28;106006;-73
2021/07/13 19:51:15;;;;;;;12.82;11.52;;;;;;;25.50;59.02;99233.09;4985005;28;106266;-75
2021/07/13 19:53:41;;;;;;;14.02;12.57;;;;;;;25.58;59.28;99235.16;4982797;27;106424;-71
2021/07/13 19:56:06;;;;;;;14.32;12.93;;;;;;;25.58;59.24;99235.16;4993447;28;110838;-69
2021/07/13 19:58:32;;;;;;;14.02;12.63;;;;;;;25.56;59.49;99248.28;4998052;28;105890;-70
2021/07/13 20:00:57;;;;;;;24.65;13.05;;;;;;;25.55;59.55;99254.00;4984352;28;106236;-69
2021/07/13 20:03:23;;;;;;;16.95;12.63;;;;;;;25.53;59.68;99267.94;4980974;28;106509;-70
2021/07/13 20:05:49;;;;;;;13.95;12.23;;;;;;;25.51;59.57;99264.72;4981486;28;106119;-69
2021/07/13 20:08:14;;;;;;;18.50;12.85;;;;;;;25.49;59.60;99270.47;4983016;28;106445;-70
2021/07/13 20:10:39;;;;;;;14.40;12.90;;;;;;;25.48;59.90;99268.03;4982225;28;106814;-69
2021/07/13 20:13:05;;;;;;;15.93;12.50;;;;;;;25.45;60.27;99282.22;4982402;28;106033;-70
2021/07/13 20:15:30;;;;;;;15.23;13.45;;;;;;;25.43;60.23;99287.16;4981923;28;106310;-70
2021/07/13 20:17:55;;;;;;;14.25;12.80;;;;;;;25.41;60.26;99286.63;4985070;28;106047;-70
2021/07/13 20:20:21;;;;;;;13.90;12.45;;;;;;;25.38;60.37;99279.84;5000530;28;106225;-70
2021/07/13 20:22:46;;;;;;;14.40;12.90;;;;;;;25.36;60.53;99281.22;4984520;28;106353;-70
2021/07/13 20:25:12;;;;;;;13.75;12.15;;;;;;;25.33;60.68;99275.28;4984366;28;106050;-67
2021/07/13 20:27:39;;;;;;;14.70;12.48;;;;;;;25.30;60.79;99272.28;4985516;28;105858;-70
2021/07/13 20:30:08;;;;;;;19.10;15.95;;;;;;;25.28;60.66;99279.94;4984496;28;105809;-68
2021/07/13 20:32:34;;;;;;;16.30;14.65;;;;;;;25.24;60.81;99279.72;4984682;28;106148;-69
2021/07/13 20:35:00;;;;;;;15.63;13.20;;;;;;;25.21;61.04;99274.84;4984167;28;106419;-69
2021/07/13 20:37:25;;;;;;;15.32;12.45;;;;;;;25.18;60.83;99264.53;4984818;28;106050;-67
2021/07/13 20:39:50;;;;;;;16.65;13.95;;;;;;;25.15;61.25;99251.47;4984624;28;105906;-69
2021/07/13 20:42:17;;;;;;;18.00;13.20;;;;;;;25.10;61.48;99243.38;4984091;28;105947;-68
2021/07/13 20:44:42;;;;;;;14.43;12.90;;;;;;;25.07;61.19;99241.22;4983792;28;105952;-69
2021/07/13 20:47:08;;;;;;;15.15;13.48;;;;;;;25.02;61.44;99254.91;4984485;28;106041;-69
2021/07/13 20:49:34;;;;;;;14.75;13.35;;;;;;;24.98;61.80;99273.72;4984257;28;106229;-71
2021/07/13 20:51:59;;;;;;;15.38;13.77;;;;;;;24.93;61.89;99269.16;4983668;28;106588;-70
2021/07/13 20:54:25;;;;;;;14.90;13.40;;;;;;;24.89;61.97;99270.84;4982421;28;106006;-70
2021/07/13 20:56:50;;;;;;;16.33;13.88;;;;;;;24.84;61.87;99276.34;4974464;28;106300;-71
2021/07/13 20:59:16;;;;;;;15.27;13.73;;;;;;;24.80;61.92;99272.56;4971800;28;106284;-70
2021/07/13 21:01:41;;;;;;;14.70;13.23;;;;;;;24.76;62.17;99274.22;4970730;28;106074;-71
2021/07/13 21:04:06;;;;;;;14.93;13.20;;;;;;;24.72;62.30;99262.28;4970543;28;105940;-71
2021/07/13 21:06:32;;;;;;;17.27;13.20;;;;;;;24.70;62.64;99267.19;4971253;28;105964;-71
2021/07/13 21:08:57;;;;;;;15.18;13.68;;;;;;;24.63;62.52;99259.34;4970583;28;105817;-71
2021/07/13 21:11:22;;;;;;;14.90;13.50;;;;;;;24.62;62.73;99257.75;4970152;28;114768;-71
2021/07/13 21:13:47;;;;;;;15.30;13.70;;;;;;;24.57;63.04;99247.66;4970302;28;106459;-71
2021/07/13 21:16:13;;;;;;;15.38;13.65;;;;;;;24.54;62.87;99250.97;4970863;28;106015;-70
2021/07/13 21:18:38;;;;;;;15.60;13.95;;;;;;;24.52;63.19;99255.06;4970700;28;106694;-71
2021/07/13 21:21:03;;;;;;;16.08;14.30;;;;;;;24.46;63.13;99249.66;4970417;28;105908;-71
2021/07/13 21:23:29;;;;;;;14.35;12.95;;;;;;;24.44;63.53;99253.78;4970126;28;106030;-69
2021/07/13 21:25:54;;;;;;;15.63;13.50;;;;;;;24.40;63.55;99239.09;4971315;28;105842;-71
